sensor_id;sensor_type;location;lat;lon;timestamp;temperature;humidity
15481;DHT22;7842;50.904;6.670;2024-03-23T00:55:55;8.50;99.90
15481;DHT22;7842;50.904;6.670;2024-03-23T00:58:20;8.60;99.90
15481;DHT22;7842;50.904;6.670;2024-03-23T01:00:46;8.50;99.90
15481;DHT22;7842;50.904;6.670;2024-03-23T01:03:13;8.40;99.90
15481;DHT22;7842;50.904;6.670;2024-03-23T01:05:38;8.40;99.90
15481;DHT22;7842;50.904;6.670;2024-03-23T01:08:04;8.30;99.90
15481;DHT22;7842;50.904;6.670;2024-03-23T01:10:30;8.40;99.90
15481;DHT22;7842;50.904;6.670;2024-03-23T01:12:56;8.30;99.90
15481;DHT22;7842;50.904;6.670;2024-03-23T01:15:22;8.40;99.90
15481;DHT22;7842;50.904;6.670;2024-03-23T01:17:47;8.20;99.90
15481;DHT22;7842;50.904;6.670;2024-03-23T01:20:13;8.30;99.90
15481;DHT22;7842;50.904;6.670;2024-03-23T01:22:39;8.20;99.90
15481;DHT22;7842;50.904;6.670;2024-03-23T01:25:04;8.20;99.90
15481;DHT22;7842;50.904;6.670;2024-03-23T01:27:30;8.20;99.90
15481;DHT22;7842;50.904;6.670;2024-03-23T01:29:56;8.20;99.90
15481;DHT22;7842;50.904;6.670;2024-03-23T01:32:21;8.20;99.90
15481;DHT22;7842;50.904;6.670;2024-03-23T01:34:47;8.20;99.90
15481;DHT22;7842;50.904;6.670;2024-03-23T01:37:12;8.20;99.90
15481;DHT22;7842;50.904;6.670;2024-03-23T01:39:38;8.20;99.90
15481;DHT22;7842;50.904;6.670;2024-03-23T01:42:04;8.20;99.90
15481;DHT22;7842;50.904;6.670;2024-03-23T01:44:29;7.90;99.90
15481;DHT22;7842;50.904;6.670;2024-03-23T01:46:55;8.00;99.90
15481;DHT22;7842;50.904;6.670;2024-03-23T01:49:21;7.90;99.90
15481;DHT22;7842;50.904;6.670;2024-03-23T01:51:46;7.80;99.90
15481;DHT22;7842;50.904;6.670;2024-03-23T01:54:12;7.80;99.90
15481;DHT22;7842;50.904;6.670;2024-03-23T01:56:38;7.50;99.90
15481;DHT22;7842;50.904;6.670;2024-03-23T01:59:07;7.40;99.90
15481;DHT22;7842;50.904;6.670;2024-03-23T02:01:35;7.10;99.90
15481;DHT22;7842;50.904;6.670;2024-03-23T02:04:03;7.20;99.90
15481;DHT22;7842;50.904;6.670;2024-03-23T02:06:29;7.20;99.90
15481;DHT22;7842;50.904;6.670;2024-03-23T02:08:55;7.10;99.90
15481;DHT22;7842;50.904;6.670;2024-03-23T02:11:21;7.00;99.90
15481;DHT22;7842;50.904;6.670;2024-03-23T02:13:46;6.90;99.90
15481;DHT22;7842;50.904;6.670;2024-03-23T02:16:12;6.80;99.90
15481;DHT22;7842;50.904;6.670;2024-03-23T02:18:39;6.80;99.90
15481;DHT22;7842;50.904;6.670;2024-03-23T02:21:04;6.70;99.90
15481;DHT22;7842;50.904;6.670;2024-03-23T02:23:30;6.70;99.90
15481;DHT22;7842;50.904;6.670;2024-03-23T02:25:56;6.70;99.90
15481;DHT22;7842;50.904;6.670;2024-03-23T02:28:21;6.70;99.90
15481;DHT22;7842;50.904;6.670;2024-03-23T02:30:51;6.70;99.90
15481;DHT22;7842;50.904;6.670;2024-03-23T02:33:16;6.70;99.90
15481;DHT22;7842;50.904;6.670;2024-03-23T02:35:44;6.70;99.90
15481;DHT22;7842;50.904;6.670;2024-03-23T02:38:10;6.70;99.90
15481;DHT22;7842;50.904;6.670;2024-03-23T02:40:36;6.70;99.90
15481;DHT22;7842;50.904;6.670;2024-03-23T02:43:03;6.80;99.90
15481;DHT22;7842;50.904;6.670;2024-03-23T02:45:28;6.80;99.90
15481;DHT22;7842;50.904;6.670;2024-03-23T02:47:54;6.80;99.90
15481;DHT22;7842;50.904;6.670;2024-03-23T02:50:20;6.70;99.90
15481;DHT22;7842;50.904;6.670;2024-03-23T02:52:46;6.70;99.90
15481;DHT22;7842;50.904;6.670;2024-03-23T02:55:12;6.70;99.90
15481;DHT22;7842;50.904;6.670;2024-03-23T02:57:37;6.80;99.90
15481;DHT22;7842;50.904;6.670;2024-03-23T03:00:04;6.90;99.90
15481;DHT22;7842;50.904;6.670;2024-03-23T03:02:30;6.80;99.90
15481;DHT22;7842;50.904;6.670;2024-03-23T03:04:56;6.70;99.90
15481;DHT22;7842;50.904;6.670;2024-03-23T03:07:22;6.80;99.90
15481;DHT22;7842;50.904;6.670;2024-03-23T03:09:47;6.80;99.90
15481;DHT22;7842;50.904;6.670;2024-03-23T03:12:13;6.70;99.90
15481;DHT22;7842;50.904;6.670;2024-03-23T03:14:38;6.60;99.90
15481;DHT22;7842;50.904;6.670;2024-03-23T03:17:04;6.60;99.90
15481;DHT22;7842;50.904;6.670;2024-03-23T03:19:30;6.70;99.90
15481;DHT22;7842;50.904;6.670;2024-03-23T03:21:55;6.70;99.90
15481;DHT22;7842;50.904;6.670;2024-03-23T03:24:21;6.70;99.90
15481;DHT22;7842;50.904;6.670;2024-03-23T03:26:47;6.70;99.90
15481;DHT22;7842;50.904;6.670;2024-03-23T03:29:12;6.70;99.90
15481;DHT22;7842;50.904;6.670;2024-03-23T03:31:39;6.70;99.90
15481;DHT22;7842;50.904;6.670;2024-03-23T03:34:05;6.70;99.90
15481;DHT22;7842;50.904;6.670;2024-03-23T03:36:30;6.70;99.90
15481;DHT22;7842;50.904;6.670;2024-03-23T03:38:56;6.70;99.90
15481;DHT22;7842;50.904;6.670;2024-03-23T03:41:21;6.70;99.90
15481;DHT22;7842;50.904;6.670;2024-03-23T03:43:47;6.70;99.90
15481;DHT22;7842;50.904;6.670;2024-03-23T03:46:12;6.70;99.90
15481;DHT22;7842;50.904;6.670;2024-03-23T03:48:38;6.80;99.90
15481;DHT22;7842;50.904;6.670;2024-03-23T03:51:04;6.80;99.90
15481;DHT22;7842;50.904;6.670;2024-03-23T03:53:30;6.80;99.90
15481;DHT22;7842;50.904;6.670;2024-03-23T03:55:56;6.80;99.90
15481;DHT22;7842;50.904;6.670;2024-03-23T03:58:22;6.80;99.90
15481;DHT22;7842;50.904;6.670;2024-03-23T04:00:47;6.90;99.90
15481;DHT22;7842;50.904;6.670;2024-03-23T04:03:13;6.90;99.90
15481;DHT22;7842;50.904;6.670;2024-03-23T04:05:39;6.90;99.90
15481;DHT22;7842;50.904;6.670;2024-03-23T04:08:07;6.80;99.90
15481;DHT22;7842;50.904;6.670;2024-03-23T04:10:33;6.80;99.90
15481;DHT22;7842;50.904;6.670;2024-03-23T04:12:58;6.70;99.90
15481;DHT22;7842;50.904;6.670;2024-03-23T04:15:24;6.70;99.90
15481;DHT22;7842;50.904;6.670;2024-03-23T04:17:50;6.70;99.90
15481;DHT22;7842;50.904;6.670;2024-03-23T04:20:16;6.80;99.90
15481;DHT22;7842;50.904;6.670;2024-03-23T04:22:45;6.80;99.90
15481;DHT22;7842;50.904;6.670;2024-03-23T04:25:11;6.80;99.90
15481;DHT22;7842;50.904;6.670;2024-03-23T04:27:37;6.80;99.90
15481;DHT22;7842;50.904;6.670;2024-03-23T04:30:03;6.80;99.90
15481;DHT22;7842;50.904;6.670;2024-03-23T04:32:35;6.70;99.90
15481;DHT22;7842;50.904;6.670;2024-03-23T04:35:01;6.80;99.90
15481;DHT22;7842;50.904;6.670;2024-03-23T04:37:28;6.60;99.90
15481;DHT22;7842;50.904;6.670;2024-03-23T04:39:54;6.70;99.90
15481;DHT22;7842;50.904;6.670;2024-03-23T04:42:19;6.70;99.90
15481;DHT22;7842;50.904;6.670;2024-03-23T04:44:45;6.70;99.90
15481;DHT22;7842;50.904;6.670;2024-03-23T04:47:11;6.70;99.90
15481;DHT22;7842;50.904;6.670;2024-03-23T04:49:36;6.80;99.90
15481;DHT22;7842;50.904;6.670;2024-03-23T04:52:05;6.80;99.90
15481;DHT22;7842;50.904;6.670;2024-03-23T04:54:31;6.80;99.90
15481;DHT22;7842;50.904;6.670;2024-03-23T04:56:59;6.80;99.90
15481;DHT22;7842;50.904;6.670;2024-03-23T04:59:25;6.80;99.90
15481;DHT22;7842;50.904;6.670;2024-03-23T05:01:51;6.80;99.90
15481;DHT22;7842;50.904;6.670;2024-03-23T05:04:17;6.70;99.90
15481;DHT22;7842;50.904;6.670;2024-03-23T05:06:42;6.70;99.90
15481;DHT22;7842;50.904;6.670;2024-03-23T05:09:09;6.80;99.90
15481;DHT22;7842;50.904;6.670;2024-03-23T05:11:38;6.70;99.90
15481;DHT22;7842;50.904;6.670;2024-03-23T05:14:04;6.70;99.90
15481;DHT22;7842;50.904;6.670;2024-03-23T05:16:29;6.70;99.90
15481;DHT22;7842;50.904;6.670;2024-03-23T05:18:55;6.70;99.90
15481;DHT22;7842;50.904;6.670;2024-03-23T05:21:20;6.80;99.90
15481;DHT22;7842;50.904;6.670;2024-03-23T05:23:46;6.90;99.90
15481;DHT22;7842;50.904;6.670;2024-03-23T05:26:13;6.90;99.90
15481;DHT22;7842;50.904;6.670;2024-03-23T05:28:38;6.90;99.90
15481;DHT22;7842;50.904;6.670;2024-03-23T05:31:04;7.00;99.90
15481;DHT22;7842;50.904;6.670;2024-03-23T05:33:29;6.90;99.90
15481;DHT22;7842;50.904;6.670;2024-03-23T05:36:00;6.90;99.90
15481;DHT22;7842;50.904;6.670;2024-03-23T05:38:26;6.90;99.90
15481;DHT22;7842;50.904;6.670;2024-03-23T05:40:59;6.80;99.90
15481;DHT22;7842;50.904;6.670;2024-03-23T05:43:26;6.70;99.90
15481;DHT22;7842;50.904;6.670;2024-03-23T05:45:56;6.70;99.90
15481;DHT22;7842;50.904;6.670;2024-03-23T05:48:22;6.70;99.90
15481;DHT22;7842;50.904;6.670;2024-03-23T05:50:51;6.70;99.90
15481;DHT22;7842;50.904;6.670;2024-03-23T05:53:17;6.60;99.90
15481;DHT22;7842;50.904;6.670;2024-03-23T05:55:43;6.60;99.90
15481;DHT22;7842;50.904;6.670;2024-03-23T05:58:10;6.60;99.90
15481;DHT22;7842;50.904;6.670;2024-03-23T06:00:35;6.60;99.90
15481;DHT22;7842;50.904;6.670;2024-03-23T06:03:01;6.70;99.90
15481;DHT22;7842;50.904;6.670;2024-03-23T06:05:27;6.60;99.90
15481;DHT22;7842;50.904;6.670;2024-03-23T06:07:53;6.60;99.90
15481;DHT22;7842;50.904;6.670;2024-03-23T06:10:19;6.50;99.90
15481;DHT22;7842;50.904;6.670;2024-03-23T06:12:46;6.50;99.90
15481;DHT22;7842;50.904;6.670;2024-03-23T06:15:12;6.60;99.90
15481;DHT22;7842;50.904;6.670;2024-03-23T06:17:37;7.00;99.90
15481;DHT22;7842;50.904;6.670;2024-03-23T06:20:04;7.50;99.90
15481;DHT22;7842;50.904;6.670;2024-03-23T06:22:31;7.90;99.90
15481;DHT22;7842;50.904;6.670;2024-03-23T06:24:57;8.20;99.90
15481;DHT22;7842;50.904;6.670;2024-03-23T06:27:23;8.30;99.90
15481;DHT22;7842;50.904;6.670;2024-03-23T06:29:49;8.60;99.90
15481;DHT22;7842;50.904;6.670;2024-03-23T06:32:14;8.80;99.90
15481;DHT22;7842;50.904;6.670;2024-03-23T06:34:43;8.90;99.90
15481;DHT22;7842;50.904;6.670;2024-03-23T06:37:09;9.00;99.90
15481;DHT22;7842;50.904;6.670;2024-03-23T06:39:37;9.30;99.90
15481;DHT22;7842;50.904;6.670;2024-03-23T06:42:04;9.20;99.90
15481;DHT22;7842;50.904;6.670;2024-03-23T06:44:30;9.30;99.90
15481;DHT22;7842;50.904;6.670;2024-03-23T06:46:56;9.40;99.90
15481;DHT22;7842;50.904;6.670;2024-03-23T06:49:25;9.20;99.90
15481;DHT22;7842;50.904;6.670;2024-03-23T06:51:51;9.10;99.90
15481;DHT22;7842;50.904;6.670;2024-03-23T06:54:17;8.80;99.90
15481;DHT22;7842;50.904;6.670;2024-03-23T06:56:46;8.50;99.90
15481;DHT22;7842;50.904;6.670;2024-03-23T06:59:12;8.30;99.90
15481;DHT22;7842;50.904;6.670;2024-03-23T07:01:37;8.20;99.90
15481;DHT22;7842;50.904;6.670;2024-03-23T07:04:04;8.10;99.90
15481;DHT22;7842;50.904;6.670;2024-03-23T07:06:30;8.00;99.90
15481;DHT22;7842;50.904;6.670;2024-03-23T07:08:56;8.00;99.90
15481;DHT22;7842;50.904;6.670;2024-03-23T07:11:22;8.00;99.90
15481;DHT22;7842;50.904;6.670;2024-03-23T07:13:54;8.00;99.90
15481;DHT22;7842;50.904;6.670;2024-03-23T07:16:21;8.00;99.90
15481;DHT22;7842;50.904;6.670;2024-03-23T07:18:47;8.10;99.90
15481;DHT22;7842;50.904;6.670;2024-03-23T07:21:14;8.10;99.90
15481;DHT22;7842;50.904;6.670;2024-03-23T07:23:42;8.20;99.90
15481;DHT22;7842;50.904;6.670;2024-03-23T07:26:11;8.20;99.90
15481;DHT22;7842;50.904;6.670;2024-03-23T07:28:37;8.30;99.90
15481;DHT22;7842;50.904;6.670;2024-03-23T07:31:10;8.30;99.90
15481;DHT22;7842;50.904;6.670;2024-03-23T07:33:37;8.30;99.90
15481;DHT22;7842;50.904;6.670;2024-03-23T07:36:03;8.40;99.90
15481;DHT22;7842;50.904;6.670;2024-03-23T07:38:29;8.30;99.90
15481;DHT22;7842;50.904;6.670;2024-03-23T07:41:18;8.20;99.90
15481;DHT22;7842;50.904;6.670;2024-03-23T07:43:47;8.40;99.90
15481;DHT22;7842;50.904;6.670;2024-03-23T07:46:13;8.60;99.90
15481;DHT22;7842;50.904;6.670;2024-03-23T07:48:39;8.40;99.90
15481;DHT22;7842;50.904;6.670;2024-03-23T07:51:19;8.10;99.90
15481;DHT22;7842;50.904;6.670;2024-03-23T07:53:45;8.10;99.90
15481;DHT22;7842;50.904;6.670;2024-03-23T07:56:15;8.00;99.90
15481;DHT22;7842;50.904;6.670;2024-03-23T07:58:42;8.00;99.90
15481;DHT22;7842;50.904;6.670;2024-03-23T08:01:15;8.20;99.90
15481;DHT22;7842;50.904;6.670;2024-03-23T08:03:43;8.10;99.90
15481;DHT22;7842;50.904;6.670;2024-03-23T08:06:18;8.20;99.90
15481;DHT22;7842;50.904;6.670;2024-03-23T08:08:46;8.20;99.90
15481;DHT22;7842;50.904;6.670;2024-03-23T08:11:12;8.00;99.90
15481;DHT22;7842;50.904;6.670;2024-03-23T08:13:42;8.00;99.90
15481;DHT22;7842;50.904;6.670;2024-03-23T08:16:08;7.90;99.90
15481;DHT22;7842;50.904;6.670;2024-03-23T08:18:39;8.10;99.90
15481;DHT22;7842;50.904;6.670;2024-03-23T08:21:06;8.40;99.90
15481;DHT22;7842;50.904;6.670;2024-03-23T08:23:33;8.60;99.90
15481;DHT22;7842;50.904;6.670;2024-03-23T08:26:00;8.70;99.90
15481;DHT22;7842;50.904;6.670;2024-03-23T08:28:26;8.70;99.90
15481;DHT22;7842;50.904;6.670;2024-03-23T08:30:55;8.80;99.90
15481;DHT22;7842;50.904;6.670;2024-03-23T08:33:22;9.00;99.90
15481;DHT22;7842;50.904;6.670;2024-03-23T08:35:57;8.90;99.90
15481;DHT22;7842;50.904;6.670;2024-03-23T08:38:23;8.90;99.90
15481;DHT22;7842;50.904;6.670;2024-03-23T08:40:59;8.90;99.90
15481;DHT22;7842;50.904;6.670;2024-03-23T08:43:26;9.20;99.90
15481;DHT22;7842;50.904;6.670;2024-03-23T08:45:52;9.30;99.90
15481;DHT22;7842;50.904;6.670;2024-03-23T08:48:19;9.50;99.90
15481;DHT22;7842;50.904;6.670;2024-03-23T08:50:58;9.50;99.90
15481;DHT22;7842;50.904;6.670;2024-03-23T08:53:23;9.50;99.90
15481;DHT22;7842;50.904;6.670;2024-03-23T08:55:58;9.30;99.90
15481;DHT22;7842;50.904;6.670;2024-03-23T08:58:26;9.40;99.90
15481;DHT22;7842;50.904;6.670;2024-03-23T09:00:52;9.60;99.90
15481;DHT22;7842;50.904;6.670;2024-03-23T09:03:18;9.50;99.90
15481;DHT22;7842;50.904;6.670;2024-03-23T09:05:44;9.60;99.90
15481;DHT22;7842;50.904;6.670;2024-03-23T09:08:09;9.60;99.90
15481;DHT22;7842;50.904;6.670;2024-03-23T09:10:40;9.50;99.90
15481;DHT22;7842;50.904;6.670;2024-03-23T09:13:06;9.20;99.90
15481;DHT22;7842;50.904;6.670;2024-03-23T09:15:35;9.10;99.90
15481;DHT22;7842;50.904;6.670;2024-03-23T09:18:02;9.10;99.90
15481;DHT22;7842;50.904;6.670;2024-03-23T09:20:27;9.00;99.90
15481;DHT22;7842;50.904;6.670;2024-03-23T09:22:53;9.10;99.90
15481;DHT22;7842;50.904;6.670;2024-03-23T09:25:19;9.20;99.90
15481;DHT22;7842;50.904;6.670;2024-03-23T09:27:47;9.00;99.90
15481;DHT22;7842;50.904;6.670;2024-03-23T09:30:13;9.20;99.90
15481;DHT22;7842;50.904;6.670;2024-03-23T09:32:43;9.60;99.90
15481;DHT22;7842;50.904;6.670;2024-03-23T09:35:08;9.80;99.90
15481;DHT22;7842;50.904;6.670;2024-03-23T09:37:34;9.90;99.90
15481;DHT22;7842;50.904;6.670;2024-03-23T09:40:00;10.10;99.90
15481;DHT22;7842;50.904;6.670;2024-03-23T09:42:26;10.30;99.90
15481;DHT22;7842;50.904;6.670;2024-03-23T09:44:52;10.40;99.90
15481;DHT22;7842;50.904;6.670;2024-03-23T09:47:21;10.30;99.90
15481;DHT22;7842;50.904;6.670;2024-03-23T09:49:46;10.40;99.90
15481;DHT22;7842;50.904;6.670;2024-03-23T09:52:12;10.40;99.90
15481;DHT22;7842;50.904;6.670;2024-03-23T09:54:37;10.40;99.90
15481;DHT22;7842;50.904;6.670;2024-03-23T09:57:04;10.40;99.90
15481;DHT22;7842;50.904;6.670;2024-03-23T09:59:33;10.40;99.90
15481;DHT22;7842;50.904;6.670;2024-03-23T10:02:00;10.30;99.90
15481;DHT22;7842;50.904;6.670;2024-03-23T10:04:39;10.10;99.90
15481;DHT22;7842;50.904;6.670;2024-03-23T10:07:15;9.90;99.90
15481;DHT22;7842;50.904;6.670;2024-03-23T10:09:42;9.80;99.90
15481;DHT22;7842;50.904;6.670;2024-03-23T10:12:10;9.60;99.90
15481;DHT22;7842;50.904;6.670;2024-03-23T10:14:36;9.40;99.90
15481;DHT22;7842;50.904;6.670;2024-03-23T10:17:19;9.10;99.90
15481;DHT22;7842;50.904;6.670;2024-03-23T10:19:46;8.70;99.90
15481;DHT22;7842;50.904;6.670;2024-03-23T10:22:14;8.30;99.90
15481;DHT22;7842;50.904;6.670;2024-03-23T10:24:41;7.80;99.90
15481;DHT22;7842;50.904;6.670;2024-03-23T10:27:06;7.70;99.90
15481;DHT22;7842;50.904;6.670;2024-03-23T10:29:32;7.70;99.90
15481;DHT22;7842;50.904;6.670;2024-03-23T10:32:11;7.80;99.90
15481;DHT22;7842;50.904;6.670;2024-03-23T10:34:37;7.90;99.90
15481;DHT22;7842;50.904;6.670;2024-03-23T10:37:04;8.10;99.90
15481;DHT22;7842;50.904;6.670;2024-03-23T10:39:35;8.40;99.90
15481;DHT22;7842;50.904;6.670;2024-03-23T10:42:08;8.70;99.90
15481;DHT22;7842;50.904;6.670;2024-03-23T10:44:37;8.90;99.90
15481;DHT22;7842;50.904;6.670;2024-03-23T10:47:04;8.80;99.90
15481;DHT22;7842;50.904;6.670;2024-03-23T10:49:34;8.80;99.90
15481;DHT22;7842;50.904;6.670;2024-03-23T10:52:01;8.90;99.90
15481;DHT22;7842;50.904;6.670;2024-03-23T10:54:27;8.90;99.90
15481;DHT22;7842;50.904;6.670;2024-03-23T10:56:58;9.20;99.90
15481;DHT22;7842;50.904;6.670;2024-03-23T10:59:25;9.30;99.90
15481;DHT22;7842;50.904;6.670;2024-03-23T11:01:59;9.40;99.90
15481;DHT22;7842;50.904;6.670;2024-03-23T11:04:36;9.50;99.90
15481;DHT22;7842;50.904;6.670;2024-03-23T11:07:32;9.40;99.90
15481;DHT22;7842;50.904;6.670;2024-03-23T11:09:59;9.50;99.90
15481;DHT22;7842;50.904;6.670;2024-03-23T11:12:26;9.60;99.90
15481;DHT22;7842;50.904;6.670;2024-03-23T11:17:23;9.70;99.90
15481;DHT22;7842;50.904;6.670;2024-03-23T11:20:00;9.70;99.90
15481;DHT22;7842;50.904;6.670;2024-03-23T11:22:42;9.80;99.90
15481;DHT22;7842;50.904;6.670;2024-03-23T11:25:17;10.10;99.90
15481;DHT22;7842;50.904;6.670;2024-03-23T11:27:44;10.10;99.90
15481;DHT22;7842;50.904;6.670;2024-03-23T11:32:47;10.20;99.90
15481;DHT22;7842;50.904;6.670;2024-03-23T11:40:47;10.20;99.90
15481;DHT22;7842;50.904;6.670;2024-03-23T11:43:18;9.70;99.90
15481;DHT22;7842;50.904;6.670;2024-03-23T11:45:48;9.30;99.90
15481;DHT22;7842;50.904;6.670;2024-03-23T11:48:19;8.70;99.90
15481;DHT22;7842;50.904;6.670;2024-03-23T11:50:49;8.50;99.90
15481;DHT22;7842;50.904;6.670;2024-03-23T11:53:19;8.50;99.90
15481;DHT22;7842;50.904;6.670;2024-03-23T11:58:14;8.70;99.90
15481;DHT22;7842;50.904;6.670;2024-03-23T12:00:40;8.80;99.90
15481;DHT22;7842;50.904;6.670;2024-03-23T12:03:06;8.70;99.90
15481;DHT22;7842;50.904;6.670;2024-03-23T12:05:33;8.70;99.90
15481;DHT22;7842;50.904;6.670;2024-03-23T12:08:24;8.80;99.90
15481;DHT22;7842;50.904;6.670;2024-03-23T12:10:51;8.80;99.90
15481;DHT22;7842;50.904;6.670;2024-03-23T12:13:21;8.70;99.90
15481;DHT22;7842;50.904;6.670;2024-03-23T12:15:51;8.10;99.90
15481;DHT22;7842;50.904;6.670;2024-03-23T12:18:17;7.60;99.90
15481;DHT22;7842;50.904;6.670;2024-03-23T12:20:43;7.10;99.90
15481;DHT22;7842;50.904;6.670;2024-03-23T12:23:12;6.70;99.90
15481;DHT22;7842;50.904;6.670;2024-03-23T12:25:39;6.40;99.90
15481;DHT22;7842;50.904;6.670;2024-03-23T12:28:05;6.30;99.90
15481;DHT22;7842;50.904;6.670;2024-03-23T12:30:35;6.30;99.90
15481;DHT22;7842;50.904;6.670;2024-03-23T12:33:04;6.50;99.90
15481;DHT22;7842;50.904;6.670;2024-03-23T12:35:29;6.80;99.90
15481;DHT22;7842;50.904;6.670;2024-03-23T12:37:55;7.20;99.90
15481;DHT22;7842;50.904;6.670;2024-03-23T12:40:21;7.50;99.90
15481;DHT22;7842;50.904;6.670;2024-03-23T12:42:46;7.50;99.90
15481;DHT22;7842;50.904;6.670;2024-03-23T12:45:12;7.50;99.90
15481;DHT22;7842;50.904;6.670;2024-03-23T12:47:38;7.60;99.90
15481;DHT22;7842;50.904;6.670;2024-03-23T12:50:04;7.50;99.90
15481;DHT22;7842;50.904;6.670;2024-03-23T12:52:31;7.60;99.90
15481;DHT22;7842;50.904;6.670;2024-03-23T12:54:57;7.50;99.90
15481;DHT22;7842;50.904;6.670;2024-03-23T12:57:24;7.60;99.90
15481;DHT22;7842;50.904;6.670;2024-03-23T12:59:50;7.80;99.90
15481;DHT22;7842;50.904;6.670;2024-03-23T13:02:22;8.00;99.90
15481;DHT22;7842;50.904;6.670;2024-03-23T13:04:52;8.30;99.90
15481;DHT22;7842;50.904;6.670;2024-03-23T13:07:19;8.60;99.90
15481;DHT22;7842;50.904;6.670;2024-03-23T13:09:45;9.00;99.90
15481;DHT22;7842;50.904;6.670;2024-03-23T13:12:11;9.20;99.90
15481;DHT22;7842;50.904;6.670;2024-03-23T13:14:40;9.40;99.90
15481;DHT22;7842;50.904;6.670;2024-03-23T13:17:06;9.40;99.90
15481;DHT22;7842;50.904;6.670;2024-03-23T13:19:33;9.30;99.90
15481;DHT22;7842;50.904;6.670;2024-03-23T13:21:59;9.40;99.90
15481;DHT22;7842;50.904;6.670;2024-03-23T13:24:26;9.40;99.90
15481;DHT22;7842;50.904;6.670;2024-03-23T13:26:53;9.70;99.90
15481;DHT22;7842;50.904;6.670;2024-03-23T13:29:19;9.70;99.90
15481;DHT22;7842;50.904;6.670;2024-03-23T13:31:45;9.80;99.90
15481;DHT22;7842;50.904;6.670;2024-03-23T13:34:11;9.70;99.90
15481;DHT22;7842;50.904;6.670;2024-03-23T13:36:38;9.70;99.90
15481;DHT22;7842;50.904;6.670;2024-03-23T13:39:04;9.60;99.90
15481;DHT22;7842;50.904;6.670;2024-03-23T13:41:45;9.40;99.90
15481;DHT22;7842;50.904;6.670;2024-03-23T13:44:12;8.90;99.90
15481;DHT22;7842;50.904;6.670;2024-03-23T13:46:39;8.70;99.90
15481;DHT22;7842;50.904;6.670;2024-03-23T13:49:05;8.40;99.90
15481;DHT22;7842;50.904;6.670;2024-03-23T13:51:31;8.10;99.90
15481;DHT22;7842;50.904;6.670;2024-03-23T13:53:57;7.80;99.90
15481;DHT22;7842;50.904;6.670;2024-03-23T13:56:29;7.70;99.90
15481;DHT22;7842;50.904;6.670;2024-03-23T13:58:57;7.60;99.90
15481;DHT22;7842;50.904;6.670;2024-03-23T14:01:23;7.80;99.90
15481;DHT22;7842;50.904;6.670;2024-03-23T14:03:49;8.00;99.90
15481;DHT22;7842;50.904;6.670;2024-03-23T14:06:15;8.10;99.90
15481;DHT22;7842;50.904;6.670;2024-03-23T14:08:41;8.20;99.90
15481;DHT22;7842;50.904;6.670;2024-03-23T14:11:07;8.20;99.90
15481;DHT22;7842;50.904;6.670;2024-03-23T14:13:34;8.30;99.90
15481;DHT22;7842;50.904;6.670;2024-03-23T14:16:01;8.30;99.90
15481;DHT22;7842;50.904;6.670;2024-03-23T14:18:26;8.40;99.90
15481;DHT22;7842;50.904;6.670;2024-03-23T14:20:56;8.40;99.90
15481;DHT22;7842;50.904;6.670;2024-03-23T14:23:27;8.40;99.90
15481;DHT22;7842;50.904;6.670;2024-03-23T14:25:55;8.50;99.90
15481;DHT22;7842;50.904;6.670;2024-03-23T14:28:22;8.50;99.90
15481;DHT22;7842;50.904;6.670;2024-03-23T14:30:52;8.60;99.90
15481;DHT22;7842;50.904;6.670;2024-03-23T14:33:20;8.60;99.90
15481;DHT22;7842;50.904;6.670;2024-03-23T14:35:55;8.60;99.90
15481;DHT22;7842;50.904;6.670;2024-03-23T14:38:22;8.50;99.90
15481;DHT22;7842;50.904;6.670;2024-03-23T14:40:48;8.60;99.90
15481;DHT22;7842;50.904;6.670;2024-03-23T14:43:14;8.20;99.90
15481;DHT22;7842;50.904;6.670;2024-03-23T14:48:35;7.00;99.90
15481;DHT22;7842;50.904;6.670;2024-03-23T14:51:01;6.60;99.90
15481;DHT22;7842;50.904;6.670;2024-03-23T14:53:30;6.40;99.90
15481;DHT22;7842;50.904;6.670;2024-03-23T14:55:56;6.40;99.90
15481;DHT22;7842;50.904;6.670;2024-03-23T14:58:22;6.30;99.90
15481;DHT22;7842;50.904;6.670;2024-03-23T15:00:49;6.40;99.90
15481;DHT22;7842;50.904;6.670;2024-03-23T15:03:14;6.50;99.90
15481;DHT22;7842;50.904;6.670;2024-03-23T15:05:40;6.50;99.90
15481;DHT22;7842;50.904;6.670;2024-03-23T15:08:06;6.70;99.90
15481;DHT22;7842;50.904;6.670;2024-03-23T15:10:35;6.90;99.90
15481;DHT22;7842;50.904;6.670;2024-03-23T15:13:00;6.90;99.90
15481;DHT22;7842;50.904;6.670;2024-03-23T15:15:26;6.90;99.90
15481;DHT22;7842;50.904;6.670;2024-03-23T15:17:51;6.90;99.90
15481;DHT22;7842;50.904;6.670;2024-03-23T15:20:17;6.80;99.90
15481;DHT22;7842;50.904;6.670;2024-03-23T15:22:43;7.20;99.90
15481;DHT22;7842;50.904;6.670;2024-03-23T15:25:08;7.30;99.90
15481;DHT22;7842;50.904;6.670;2024-03-23T15:27:34;7.70;99.90
15481;DHT22;7842;50.904;6.670;2024-03-23T15:30:00;7.90;99.90
15481;DHT22;7842;50.904;6.670;2024-03-23T15:32:25;8.00;99.90
15481;DHT22;7842;50.904;6.670;2024-03-23T15:34:51;8.00;99.90
15481;DHT22;7842;50.904;6.670;2024-03-23T15:37:17;8.00;99.90
15481;DHT22;7842;50.904;6.670;2024-03-23T15:39:43;7.80;99.90
15481;DHT22;7842;50.904;6.670;2024-03-23T15:42:09;7.80;99.90
15481;DHT22;7842;50.904;6.670;2024-03-23T15:44:35;7.70;99.90
15481;DHT22;7842;50.904;6.670;2024-03-23T15:47:01;7.60;99.90
15481;DHT22;7842;50.904;6.670;2024-03-23T15:49:26;7.50;99.90
15481;DHT22;7842;50.904;6.670;2024-03-23T15:51:52;7.50;99.90
15481;DHT22;7842;50.904;6.670;2024-03-23T15:54:18;7.40;99.90
15481;DHT22;7842;50.904;6.670;2024-03-23T15:56:44;7.40;99.90
15481;DHT22;7842;50.904;6.670;2024-03-23T15:59:10;7.40;99.90
15481;DHT22;7842;50.904;6.670;2024-03-23T16:01:35;7.30;99.90
15481;DHT22;7842;50.904;6.670;2024-03-23T16:04:04;7.30;99.90
15481;DHT22;7842;50.904;6.670;2024-03-23T16:06:30;7.20;99.90
15481;DHT22;7842;50.904;6.670;2024-03-23T16:08:55;7.10;99.90
15481;DHT22;7842;50.904;6.670;2024-03-23T16:11:21;7.00;99.90
15481;DHT22;7842;50.904;6.670;2024-03-23T16:13:46;6.90;99.90
15481;DHT22;7842;50.904;6.670;2024-03-23T16:16:12;7.10;99.90
15481;DHT22;7842;50.904;6.670;2024-03-23T16:18:38;7.20;99.90
15481;DHT22;7842;50.904;6.670;2024-03-23T16:21:07;7.30;99.90
15481;DHT22;7842;50.904;6.670;2024-03-23T16:23:34;7.30;99.90
15481;DHT22;7842;50.904;6.670;2024-03-23T16:26:00;7.40;99.90
15481;DHT22;7842;50.904;6.670;2024-03-23T16:28:27;7.60;99.90
15481;DHT22;7842;50.904;6.670;2024-03-23T16:31:00;7.60;99.90
15481;DHT22;7842;50.904;6.670;2024-03-23T16:33:26;7.70;99.90
15481;DHT22;7842;50.904;6.670;2024-03-23T16:36:18;7.80;99.90
15481;DHT22;7842;50.904;6.670;2024-03-23T16:38:44;7.80;99.90
15481;DHT22;7842;50.904;6.670;2024-03-23T16:41:12;7.70;99.90
15481;DHT22;7842;50.904;6.670;2024-03-23T16:43:44;7.70;99.90
15481;DHT22;7842;50.904;6.670;2024-03-23T16:46:11;7.90;99.90
15481;DHT22;7842;50.904;6.670;2024-03-23T16:48:38;7.90;99.90
15481;DHT22;7842;50.904;6.670;2024-03-23T16:51:04;7.90;99.90
15481;DHT22;7842;50.904;6.670;2024-03-23T16:53:31;7.90;99.90
15481;DHT22;7842;50.904;6.670;2024-03-23T16:56:02;7.90;99.90
15481;DHT22;7842;50.904;6.670;2024-03-23T16:58:33;7.90;99.90
15481;DHT22;7842;50.904;6.670;2024-03-23T17:01:09;7.90;99.90
15481;DHT22;7842;50.904;6.670;2024-03-23T17:03:46;7.90;99.90
15481;DHT22;7842;50.904;6.670;2024-03-23T17:06:11;7.90;99.90
15481;DHT22;7842;50.904;6.670;2024-03-23T17:08:40;7.80;99.90
15481;DHT22;7842;50.904;6.670;2024-03-23T17:11:06;7.70;99.90
15481;DHT22;7842;50.904;6.670;2024-03-23T17:13:32;7.60;99.90